EZY365G EGCC-EGAC
Flight info
| Callsign | EZY365G |
|---|---|
| Flight time | 0h 34m |
| Altitude | 24000 |
| Route | EKLAD1R/23R EKLAD Y53 WAL M146 ERDUV Z198 MASOP M148 MAGEE |
| Aircraft | A320/M-SDE3FGHIRWY/LB1 |
Departure
| Time | 2026-04-24 20:25 |
|---|---|
| Airport | Manchester Airport (EGCC) |
Arrival
| Time | 2026-04-24 21:00 |
|---|---|
| Airport | George Best Belfast City Airport (EGAC) |
| Time | Latitude | Longitude | Altitude | Speed | Heading |
|---|---|---|---|---|---|
| 2026-04-24 19:59 | 53.35979 | -2.27514 | 255 ft | 0 kts | 96° |
| 2026-04-24 20:15 | 53.35981 | -2.27533 | 255 ft | 2 kts | 96° |
| 2026-04-24 20:16 | 53.35982 | -2.27561 | 255 ft | 2 kts | 96° |
| 2026-04-24 20:16 | 53.35984 | -2.27589 | 255 ft | 2 kts | 96° |
| 2026-04-24 20:16 | 53.35986 | -2.27618 | 255 ft | 2 kts | 135° |
| 2026-04-24 20:16 | 53.35997 | -2.27630 | 255 ft | 0 kts | 189° |
| 2026-04-24 20:19 | 53.35987 | -2.27620 | 255 ft | 0 kts | 141° |
| 2026-04-24 20:19 | 53.35971 | -2.27617 | 255 ft | 6 kts | 184° |
| 2026-04-24 20:20 | 53.35909 | -2.27640 | 255 ft | 11 kts | 191° |
| 2026-04-24 20:20 | 53.35828 | -2.27657 | 255 ft | 13 kts | 186° |
| 2026-04-24 20:20 | 53.35748 | -2.27653 | 255 ft | 10 kts | 161° |
| 2026-04-24 20:20 | 53.35683 | -2.27609 | 256 ft | 10 kts | 150° |
| 2026-04-24 20:21 | 53.35635 | -2.27546 | 256 ft | 8 kts | 140° |
| 2026-04-24 20:21 | 53.35634 | -2.27426 | 254 ft | 18 kts | 57° |
| 2026-04-24 20:21 | 53.35717 | -2.27254 | 255 ft | 19 kts | 51° |
| 2026-04-24 20:21 | 53.35804 | -2.27071 | 255 ft | 21 kts | 55° |
| 2026-04-24 20:22 | 53.35886 | -2.26868 | 255 ft | 19 kts | 51° |
| 2026-04-24 20:22 | 53.35961 | -2.26692 | 255 ft | 18 kts | 52° |
| 2026-04-24 20:22 | 53.36024 | -2.26561 | 255 ft | 13 kts | 51° |
| 2026-04-24 20:22 | 53.36078 | -2.26449 | 255 ft | 12 kts | 51° |
| 2026-04-24 20:23 | 53.36127 | -2.26348 | 255 ft | 11 kts | 50° |
| 2026-04-24 20:23 | 53.36177 | -2.26262 | 255 ft | 10 kts | 37° |
| 2026-04-24 20:23 | 53.36226 | -2.26189 | 255 ft | 9 kts | 50° |
| 2026-04-24 20:23 | 53.36261 | -2.26106 | 255 ft | 10 kts | 61° |
| 2026-04-24 20:24 | 53.36267 | -2.26019 | 255 ft | 11 kts | 93° |
| 2026-04-24 20:24 | 53.36286 | -2.25856 | 255 ft | 10 kts | 97° |
| 2026-04-24 20:24 | 53.36249 | -2.25759 | 255 ft | 12 kts | 145° |
| 2026-04-24 20:24 | 53.36187 | -2.25809 | 254 ft | 13 kts | 236° |
| 2026-04-24 20:25 | 53.36042 | -2.26113 | 255 ft | 70 kts | 231° |
| 2026-04-24 20:25 | 53.35590 | -2.27050 | 259 ft | 135 kts | 231° |
| 2026-04-24 20:25 | 53.34914 | -2.28459 | 563 ft | 161 kts | 231° |
| 2026-04-24 20:25 | 53.34221 | -2.29934 | 1352 ft | 162 kts | 229° |
| 2026-04-24 20:26 | 53.33485 | -2.31484 | 1872 ft | 181 kts | 229° |
| 2026-04-24 20:26 | 53.32658 | -2.33217 | 2311 ft | 201 kts | 232° |
| 2026-04-24 20:26 | 53.32146 | -2.35469 | 2682 ft | 225 kts | 265° |
| 2026-04-24 20:26 | 53.32147 | -2.38242 | 3152 ft | 252 kts | 271° |
| 2026-04-24 20:27 | 53.32228 | -2.41271 | 3915 ft | 265 kts | 273° |
| 2026-04-24 20:27 | 53.32260 | -2.44385 | 4693 ft | 272 kts | 262° |
| 2026-04-24 20:27 | 53.31872 | -2.47478 | 5006 ft | 274 kts | 259° |
| 2026-04-24 20:27 | 53.31936 | -2.50660 | 5964 ft | 276 kts | 284° |
| 2026-04-24 20:28 | 53.32770 | -2.53538 | 7025 ft | 277 kts | 307° |
| 2026-04-24 20:28 | 53.33956 | -2.56081 | 8079 ft | 277 kts | 308° |
| 2026-04-24 20:28 | 53.35161 | -2.58627 | 9055 ft | 281 kts | 309° |
| 2026-04-24 20:28 | 53.36389 | -2.61215 | 9958 ft | 286 kts | 309° |
| 2026-04-24 20:29 | 53.37230 | -2.62990 | 10550 ft | 291 kts | 309° |
| 2026-04-24 20:29 | 53.38987 | -2.66702 | 11085 ft | 321 kts | 309° |
| 2026-04-24 20:29 | 53.40390 | -2.69677 | 11787 ft | 329 kts | 308° |
| 2026-04-24 20:29 | 53.41816 | -2.72718 | 12632 ft | 334 kts | 308° |
| 2026-04-24 20:30 | 53.43259 | -2.75804 | 13471 ft | 338 kts | 308° |
| 2026-04-24 20:30 | 53.44719 | -2.78933 | 14269 ft | 343 kts | 308° |
| 2026-04-24 20:30 | 53.46193 | -2.82098 | 14989 ft | 347 kts | 308° |
| 2026-04-24 20:30 | 53.47691 | -2.85313 | 15698 ft | 351 kts | 308° |
| 2026-04-24 20:31 | 53.49205 | -2.88561 | 16383 ft | 356 kts | 308° |
| 2026-04-24 20:31 | 53.50741 | -2.91858 | 17060 ft | 361 kts | 308° |
| 2026-04-24 20:31 | 53.52295 | -2.95206 | 17750 ft | 366 kts | 308° |
| 2026-04-24 20:31 | 53.53869 | -2.98596 | 18444 ft | 370 kts | 308° |
| 2026-04-24 20:32 | 53.55460 | -3.02023 | 19064 ft | 374 kts | 308° |
| 2026-04-24 20:32 | 53.57067 | -3.05490 | 19684 ft | 377 kts | 308° |
| 2026-04-24 20:32 | 53.58681 | -3.08986 | 20338 ft | 379 kts | 308° |
| 2026-04-24 20:32 | 53.60297 | -3.12502 | 20971 ft | 382 kts | 307° |
| 2026-04-24 20:33 | 53.61928 | -3.16055 | 21576 ft | 385 kts | 307° |
| 2026-04-24 20:33 | 53.63567 | -3.19631 | 22214 ft | 386 kts | 307° |
| 2026-04-24 20:33 | 53.65216 | -3.23218 | 22865 ft | 388 kts | 307° |
| 2026-04-24 20:33 | 53.66873 | -3.26822 | 23448 ft | 391 kts | 307° |
| 2026-04-24 20:34 | 53.68543 | -3.30462 | 23987 ft | 393 kts | 307° |
| 2026-04-24 20:34 | 53.70218 | -3.34116 | 24184 ft | 395 kts | 308° |
| 2026-04-24 20:34 | 53.71891 | -3.37771 | 24242 ft | 386 kts | 308° |
| 2026-04-24 20:34 | 53.73507 | -3.41316 | 24249 ft | 379 kts | 308° |
| 2026-04-24 20:35 | 53.75105 | -3.44836 | 24248 ft | 376 kts | 308° |
| 2026-04-24 20:35 | 53.76698 | -3.48341 | 24249 ft | 376 kts | 308° |
| 2026-04-24 20:35 | 53.78290 | -3.51848 | 24249 ft | 376 kts | 308° |
| 2026-04-24 20:35 | 53.79880 | -3.55356 | 24249 ft | 376 kts | 308° |
| 2026-04-24 20:36 | 53.80932 | -3.57678 | 24252 ft | 376 kts | 308° |
| 2026-04-24 20:36 | 53.82519 | -3.61186 | 24252 ft | 376 kts | 308° |
| 2026-04-24 20:36 | 53.84107 | -3.64698 | 24252 ft | 375 kts | 308° |
| 2026-04-24 20:36 | 53.85691 | -3.68209 | 24248 ft | 375 kts | 307° |
| 2026-04-24 20:37 | 53.87274 | -3.71728 | 24241 ft | 375 kts | 307° |
| 2026-04-24 20:37 | 53.88857 | -3.75252 | 24243 ft | 375 kts | 307° |
| 2026-04-24 20:37 | 53.90439 | -3.78774 | 24239 ft | 375 kts | 307° |
| 2026-04-24 20:37 | 53.92019 | -3.82292 | 24240 ft | 375 kts | 307° |
| 2026-04-24 20:38 | 53.93603 | -3.85822 | 24240 ft | 375 kts | 308° |
| 2026-04-24 20:38 | 53.95180 | -3.89349 | 24231 ft | 376 kts | 308° |
| 2026-04-24 20:38 | 53.96763 | -3.92895 | 24227 ft | 377 kts | 308° |
| 2026-04-24 20:38 | 53.98349 | -3.96451 | 24225 ft | 378 kts | 308° |
| 2026-04-24 20:39 | 53.99934 | -4.00010 | 24224 ft | 378 kts | 308° |
| 2026-04-24 20:39 | 54.01522 | -4.03578 | 24224 ft | 379 kts | 308° |
| 2026-04-24 20:39 | 54.03112 | -4.07149 | 24225 ft | 379 kts | 308° |
| 2026-04-24 20:39 | 54.04681 | -4.10683 | 24226 ft | 379 kts | 308° |
| 2026-04-24 20:40 | 54.06269 | -4.14262 | 24228 ft | 379 kts | 307° |
| 2026-04-24 20:40 | 54.07858 | -4.17849 | 24229 ft | 379 kts | 307° |
| 2026-04-24 20:40 | 54.09443 | -4.21437 | 24230 ft | 379 kts | 308° |
| 2026-04-24 20:40 | 54.11027 | -4.25024 | 24226 ft | 379 kts | 306° |
| 2026-04-24 20:41 | 54.12611 | -4.28627 | 24229 ft | 379 kts | 306° |
| 2026-04-24 20:41 | 54.14187 | -4.32222 | 24232 ft | 379 kts | 306° |
| 2026-04-24 20:41 | 54.15763 | -4.35825 | 24235 ft | 379 kts | 306° |
| 2026-04-24 20:41 | 54.17310 | -4.39455 | 24239 ft | 378 kts | 305° |
| 2026-04-24 20:42 | 54.18829 | -4.43130 | 24237 ft | 378 kts | 304° |
| 2026-04-24 20:42 | 54.20328 | -4.46817 | 24235 ft | 378 kts | 304° |
| 2026-04-24 20:42 | 54.21823 | -4.50510 | 24237 ft | 378 kts | 304° |
| 2026-04-24 20:42 | 54.23326 | -4.54217 | 24236 ft | 378 kts | 304° |
| 2026-04-24 20:43 | 54.24827 | -4.57908 | 24239 ft | 378 kts | 304° |
| 2026-04-24 20:43 | 54.26330 | -4.61597 | 24242 ft | 378 kts | 304° |
| 2026-04-24 20:43 | 54.27835 | -4.65286 | 24242 ft | 378 kts | 304° |
| 2026-04-24 20:43 | 54.29339 | -4.68978 | 24241 ft | 378 kts | 304° |
| 2026-04-24 20:44 | 54.30841 | -4.72675 | 24238 ft | 378 kts | 304° |
| 2026-04-24 20:44 | 54.32338 | -4.76364 | 24054 ft | 375 kts | 304° |
| 2026-04-24 20:44 | 54.33814 | -4.80001 | 23683 ft | 369 kts | 304° |
| 2026-04-24 20:44 | 54.35271 | -4.83598 | 23274 ft | 366 kts | 304° |
| 2026-04-24 20:45 | 54.36719 | -4.87180 | 22863 ft | 364 kts | 304° |
| 2026-04-24 20:45 | 54.38152 | -4.90736 | 22463 ft | 362 kts | 304° |
| 2026-04-24 20:45 | 54.39582 | -4.94290 | 22056 ft | 361 kts | 304° |
| 2026-04-24 20:45 | 54.41008 | -4.97852 | 21411 ft | 364 kts | 304° |
| 2026-04-24 20:46 | 54.42443 | -5.01448 | 20774 ft | 366 kts | 304° |
| 2026-04-24 20:46 | 54.43889 | -5.05070 | 20154 ft | 369 kts | 304° |
| 2026-04-24 20:46 | 54.45350 | -5.08709 | 19545 ft | 371 kts | 304° |
| 2026-04-24 20:46 | 54.46833 | -5.12365 | 18948 ft | 373 kts | 304° |
| 2026-04-24 20:47 | 54.48324 | -5.16034 | 18335 ft | 375 kts | 304° |
| 2026-04-24 20:47 | 54.49806 | -5.19726 | 17663 ft | 376 kts | 304° |
| 2026-04-24 20:47 | 54.51123 | -5.23600 | 17004 ft | 376 kts | 291° |
| 2026-04-24 20:47 | 54.51653 | -5.27985 | 16361 ft | 376 kts | 270° |
| 2026-04-24 20:48 | 54.51379 | -5.32441 | 15729 ft | 375 kts | 259° |
| 2026-04-24 20:48 | 54.50919 | -5.36861 | 15118 ft | 376 kts | 259° |
| 2026-04-24 20:48 | 54.50456 | -5.41281 | 14516 ft | 376 kts | 259° |
| 2026-04-24 20:48 | 54.49997 | -5.45725 | 13901 ft | 377 kts | 259° |
| 2026-04-24 20:49 | 54.49535 | -5.50160 | 13237 ft | 376 kts | 259° |
| 2026-04-24 20:49 | 54.49074 | -5.54571 | 12730 ft | 368 kts | 259° |
| 2026-04-24 20:49 | 54.48639 | -5.58745 | 12470 ft | 342 kts | 259° |
| 2026-04-24 20:49 | 54.48235 | -5.62647 | 12229 ft | 321 kts | 259° |
| 2026-04-24 20:50 | 54.47856 | -5.66320 | 11983 ft | 303 kts | 259° |
| 2026-04-24 20:50 | 54.47499 | -5.69792 | 11729 ft | 287 kts | 259° |
| 2026-04-24 20:50 | 54.47163 | -5.73090 | 11481 ft | 273 kts | 259° |
| 2026-04-24 20:50 | 54.46843 | -5.76238 | 11235 ft | 262 kts | 259° |
| 2026-04-24 20:51 | 54.46533 | -5.79300 | 10995 ft | 260 kts | 259° |
| 2026-04-24 20:51 | 54.46220 | -5.82378 | 10550 ft | 262 kts | 259° |
| 2026-04-24 20:51 | 54.45830 | -5.85422 | 10053 ft | 259 kts | 245° |
| 2026-04-24 20:51 | 54.44823 | -5.87917 | 9534 ft | 253 kts | 223° |
| 2026-04-24 20:52 | 54.43539 | -5.89967 | 9015 ft | 251 kts | 219° |
| 2026-04-24 20:52 | 54.42228 | -5.91944 | 8503 ft | 249 kts | 219° |
| 2026-04-24 20:52 | 54.40925 | -5.93888 | 8000 ft | 247 kts | 219° |
| 2026-04-24 20:52 | 54.39632 | -5.95807 | 7495 ft | 244 kts | 219° |
| 2026-04-24 20:53 | 54.38424 | -5.97821 | 7008 ft | 242 kts | 234° |
| 2026-04-24 20:53 | 54.37865 | -6.00499 | 6514 ft | 242 kts | 266° |
| 2026-04-24 20:53 | 54.38189 | -6.03295 | 6004 ft | 240 kts | 293° |
| 2026-04-24 20:53 | 54.38930 | -6.05846 | 5501 ft | 238 kts | 298° |
| 2026-04-24 20:54 | 54.39710 | -6.08299 | 5013 ft | 237 kts | 298° |
| 2026-04-24 20:54 | 54.40502 | -6.10763 | 4496 ft | 235 kts | 298° |
| 2026-04-24 20:54 | 54.41408 | -6.13119 | 3961 ft | 233 kts | 317° |
| 2026-04-24 20:54 | 54.42809 | -6.14396 | 3507 ft | 227 kts | 353° |
| 2026-04-24 20:55 | 54.44303 | -6.14087 | 3379 ft | 221 kts | 27° |
| 2026-04-24 20:55 | 54.45435 | -6.12389 | 3248 ft | 217 kts | 62° |
| 2026-04-24 20:55 | 54.45904 | -6.09951 | 3126 ft | 216 kts | 81° |
| 2026-04-24 20:55 | 54.46191 | -6.07424 | 3005 ft | 217 kts | 74° |
| 2026-04-24 20:56 | 54.46924 | -6.05171 | 2903 ft | 219 kts | 49° |
| 2026-04-24 20:56 | 54.48117 | -6.03540 | 2809 ft | 218 kts | 36° |
| 2026-04-24 20:56 | 54.49335 | -6.02108 | 2786 ft | 206 kts | 36° |
| 2026-04-24 20:56 | 54.50503 | -6.00726 | 2588 ft | 203 kts | 37° |
| 2026-04-24 20:57 | 54.51657 | -5.99356 | 2367 ft | 199 kts | 37° |
| 2026-04-24 20:57 | 54.52777 | -5.98026 | 2097 ft | 193 kts | 37° |
| 2026-04-24 20:57 | 54.53862 | -5.96734 | 1832 ft | 185 kts | 37° |
| 2026-04-24 20:57 | 54.54882 | -5.95522 | 1585 ft | 170 kts | 37° |
| 2026-04-24 20:58 | 54.55795 | -5.94436 | 1371 ft | 151 kts | 37° |
| 2026-04-24 20:58 | 54.56627 | -5.93437 | 1130 ft | 140 kts | 37° |
| 2026-04-24 20:58 | 54.57409 | -5.92489 | 925 ft | 136 kts | 36° |
| 2026-04-24 20:58 | 54.58174 | -5.91570 | 712 ft | 133 kts | 34° |
| 2026-04-24 20:59 | 54.58930 | -5.90668 | 549 ft | 132 kts | 34° |
| 2026-04-24 20:59 | 54.59683 | -5.89778 | 377 ft | 131 kts | 33° |
| 2026-04-24 20:59 | 54.60432 | -5.88887 | 231 ft | 131 kts | 34° |
| 2026-04-24 20:59 | 54.61179 | -5.88000 | 54 ft | 130 kts | 34° |
| 2026-04-24 21:00 | 54.61848 | -5.87205 | 26 ft | 86 kts | 34° |
| 2026-04-24 21:00 | 54.62148 | -5.86849 | 23 ft | 36 kts | 35° |
| 2026-04-24 21:00 | 54.62308 | -5.86649 | 24 ft | 28 kts | 36° |
| 2026-04-24 21:00 | 54.62431 | -5.86539 | 26 ft | 9 kts | 25° |
| 2026-04-24 21:01 | 54.62428 | -5.86479 | 24 ft | 4 kts | 182° |
| 2026-04-24 21:01 | 54.62389 | -5.86550 | 26 ft | 18 kts | 225° |
| 2026-04-24 21:01 | 54.62250 | -5.86726 | 24 ft | 28 kts | 214° |
| 2026-04-24 21:01 | 54.62083 | -5.86923 | 23 ft | 30 kts | 214° |
| 2026-04-24 21:02 | 54.61908 | -5.87131 | 24 ft | 23 kts | 214° |
| 2026-04-24 21:02 | 54.61818 | -5.87138 | 23 ft | 14 kts | 131° |
| 2026-04-24 21:02 | 54.61766 | -5.87012 | 24 ft | 11 kts | 129° |
| 2026-04-24 21:02 | 54.61713 | -5.87008 | 23 ft | 9 kts | 210° |
| 2026-04-24 21:03 | 54.61645 | -5.87087 | 23 ft | 12 kts | 214° |
| 2026-04-24 21:03 | 54.61581 | -5.87162 | 23 ft | 11 kts | 211° |
| 2026-04-24 21:03 | 54.61523 | -5.87162 | 23 ft | 7 kts | 155° |
| 2026-04-24 21:03 | 54.61503 | -5.87146 | 26 ft | 0 kts | 155° |
| 2026-04-24 21:04 | 54.61502 | -5.87145 | 25 ft | 0 kts | 155° |